sensor_id;sensor_type;location;lat;lon;timestamp;P1;durP1;ratioP1;P2;durP2;ratioP2
29550;SDS011;16488;52.396;10.696;2023-04-15T00:00:08;10.55;;;7.03;;
29550;SDS011;16488;52.396;10.696;2023-04-15T00:02:34;10.90;;;7.55;;
29550;SDS011;16488;52.396;10.696;2023-04-15T00:05:01;8.65;;;6.70;;
29550;SDS011;16488;52.396;10.696;2023-04-15T00:07:26;11.00;;;6.97;;
29550;SDS011;16488;52.396;10.696;2023-04-15T00:09:53;13.93;;;6.97;;
29550;SDS011;16488;52.396;10.696;2023-04-15T00:12:21;10.63;;;7.07;;
29550;SDS011;16488;52.396;10.696;2023-04-15T00:14:47;11.50;;;6.57;;
29550;SDS011;16488;52.396;10.696;2023-04-15T00:17:14;12.27;;;7.03;;
29550;SDS011;16488;52.396;10.696;2023-04-15T00:19:39;11.63;;;7.28;;
29550;SDS011;16488;52.396;10.696;2023-04-15T00:22:05;14.25;;;7.40;;
29550;SDS011;16488;52.396;10.696;2023-04-15T00:26:58;12.00;;;7.57;;
29550;SDS011;16488;52.396;10.696;2023-04-15T00:29:24;11.43;;;6.45;;
29550;SDS011;16488;52.396;10.696;2023-04-15T00:31:50;11.80;;;7.13;;
29550;SDS011;16488;52.396;10.696;2023-04-15T00:34:16;11.05;;;7.57;;
29550;SDS011;16488;52.396;10.696;2023-04-15T00:36:42;12.88;;;7.70;;
29550;SDS011;16488;52.396;10.696;2023-04-15T00:39:07;11.13;;;7.38;;
29550;SDS011;16488;52.396;10.696;2023-04-15T00:41:33;15.55;;;8.13;;
29550;SDS011;16488;52.396;10.696;2023-04-15T00:43:59;16.25;;;9.20;;
29550;SDS011;16488;52.396;10.696;2023-04-15T00:46:27;12.90;;;8.48;;
29550;SDS011;16488;52.396;10.696;2023-04-15T00:48:54;13.68;;;8.82;;
29550;SDS011;16488;52.396;10.696;2023-04-15T00:51:20;14.00;;;9.77;;
29550;SDS011;16488;52.396;10.696;2023-04-15T00:53:46;15.82;;;8.68;;
29550;SDS011;16488;52.396;10.696;2023-04-15T00:56:11;13.95;;;8.23;;
29550;SDS011;16488;52.396;10.696;2023-04-15T00:58:38;13.70;;;8.70;;
29550;SDS011;16488;52.396;10.696;2023-04-15T01:01:04;17.10;;;9.10;;
29550;SDS011;16488;52.396;10.696;2023-04-15T01:03:29;17.20;;;10.50;;
29550;SDS011;16488;52.396;10.696;2023-04-15T01:05:55;17.70;;;10.00;;
29550;SDS011;16488;52.396;10.696;2023-04-15T01:08:29;15.68;;;8.77;;
29550;SDS011;16488;52.396;10.696;2023-04-15T01:10:56;15.43;;;8.98;;
29550;SDS011;16488;52.396;10.696;2023-04-15T01:13:23;15.90;;;9.80;;
29550;SDS011;16488;52.396;10.696;2023-04-15T01:15:49;17.48;;;10.35;;
29550;SDS011;16488;52.396;10.696;2023-04-15T01:18:16;15.30;;;8.80;;
29550;SDS011;16488;52.396;10.696;2023-04-15T01:20:43;17.88;;;9.98;;
29550;SDS011;16488;52.396;10.696;2023-04-15T01:23:08;15.63;;;9.05;;
29550;SDS011;16488;52.396;10.696;2023-04-15T01:25:34;16.08;;;10.20;;
29550;SDS011;16488;52.396;10.696;2023-04-15T01:28:01;19.35;;;10.93;;
29550;SDS011;16488;52.396;10.696;2023-04-15T01:32:53;18.52;;;9.93;;
29550;SDS011;16488;52.396;10.696;2023-04-15T01:35:18;17.02;;;9.85;;
29550;SDS011;16488;52.396;10.696;2023-04-15T01:37:45;17.73;;;10.50;;
29550;SDS011;16488;52.396;10.696;2023-04-15T01:40:11;17.17;;;10.70;;
29550;SDS011;16488;52.396;10.696;2023-04-15T01:42:37;17.20;;;10.80;;
29550;SDS011;16488;52.396;10.696;2023-04-15T01:45:03;16.95;;;10.50;;
29550;SDS011;16488;52.396;10.696;2023-04-15T01:47:30;20.60;;;11.80;;
29550;SDS011;16488;52.396;10.696;2023-04-15T01:49:56;23.10;;;10.02;;
29550;SDS011;16488;52.396;10.696;2023-04-15T01:52:21;22.50;;;11.48;;
29550;SDS011;16488;52.396;10.696;2023-04-15T01:54:47;18.45;;;11.70;;
29550;SDS011;16488;52.396;10.696;2023-04-15T01:57:13;19.90;;;11.90;;
29550;SDS011;16488;52.396;10.696;2023-04-15T01:59:38;20.27;;;10.68;;
29550;SDS011;16488;52.396;10.696;2023-04-15T02:02:05;23.92;;;12.75;;
29550;SDS011;16488;52.396;10.696;2023-04-15T02:04:30;19.63;;;11.55;;
29550;SDS011;16488;52.396;10.696;2023-04-15T02:06:56;22.15;;;12.15;;
29550;SDS011;16488;52.396;10.696;2023-04-15T02:09:22;21.48;;;13.18;;
29550;SDS011;16488;52.396;10.696;2023-04-15T02:11:47;24.10;;;12.98;;
29550;SDS011;16488;52.396;10.696;2023-04-15T02:14:15;20.75;;;12.77;;
29550;SDS011;16488;52.396;10.696;2023-04-15T02:16:41;22.60;;;12.95;;
29550;SDS011;16488;52.396;10.696;2023-04-15T02:19:06;22.23;;;12.85;;
29550;SDS011;16488;52.396;10.696;2023-04-15T02:21:32;23.95;;;13.13;;
29550;SDS011;16488;52.396;10.696;2023-04-15T02:23:59;29.13;;;14.13;;
29550;SDS011;16488;52.396;10.696;2023-04-15T02:26:26;25.75;;;13.05;;
29550;SDS011;16488;52.396;10.696;2023-04-15T02:28:52;25.98;;;13.57;;
29550;SDS011;16488;52.396;10.696;2023-04-15T02:31:18;25.77;;;14.25;;
29550;SDS011;16488;52.396;10.696;2023-04-15T02:33:45;27.13;;;14.43;;
29550;SDS011;16488;52.396;10.696;2023-04-15T02:36:11;25.25;;;13.85;;
29550;SDS011;16488;52.396;10.696;2023-04-15T02:38:37;28.10;;;14.05;;
29550;SDS011;16488;52.396;10.696;2023-04-15T02:41:04;29.52;;;13.98;;
29550;SDS011;16488;52.396;10.696;2023-04-15T02:43:30;25.27;;;13.45;;
29550;SDS011;16488;52.396;10.696;2023-04-15T02:45:55;24.75;;;12.93;;
29550;SDS011;16488;52.396;10.696;2023-04-15T02:48:21;26.25;;;14.13;;
29550;SDS011;16488;52.396;10.696;2023-04-15T02:50:46;26.15;;;13.63;;
29550;SDS011;16488;52.396;10.696;2023-04-15T02:53:12;26.58;;;14.02;;
29550;SDS011;16488;52.396;10.696;2023-04-15T02:55:38;23.67;;;13.60;;
29550;SDS011;16488;52.396;10.696;2023-04-15T02:58:04;26.35;;;12.82;;
29550;SDS011;16488;52.396;10.696;2023-04-15T03:02:57;26.58;;;14.77;;
29550;SDS011;16488;52.396;10.696;2023-04-15T03:05:27;27.08;;;14.10;;
29550;SDS011;16488;52.396;10.696;2023-04-15T03:07:53;28.25;;;14.98;;
29550;SDS011;16488;52.396;10.696;2023-04-15T03:10:19;29.50;;;14.38;;
29550;SDS011;16488;52.396;10.696;2023-04-15T03:15:10;27.20;;;13.82;;
29550;SDS011;16488;52.396;10.696;2023-04-15T03:17:36;25.13;;;13.82;;
29550;SDS011;16488;52.396;10.696;2023-04-15T03:20:02;29.75;;;16.08;;
29550;SDS011;16488;52.396;10.696;2023-04-15T03:22:29;26.30;;;14.02;;
29550;SDS011;16488;52.396;10.696;2023-04-15T03:24:57;29.48;;;14.93;;
29550;SDS011;16488;52.396;10.696;2023-04-15T03:27:23;29.80;;;15.20;;
29550;SDS011;16488;52.396;10.696;2023-04-15T03:32:15;28.92;;;14.57;;
29550;SDS011;16488;52.396;10.696;2023-04-15T03:34:41;29.55;;;15.27;;
29550;SDS011;16488;52.396;10.696;2023-04-15T03:37:07;23.95;;;14.35;;
29550;SDS011;16488;52.396;10.696;2023-04-15T03:39:32;26.38;;;15.05;;
29550;SDS011;16488;52.396;10.696;2023-04-15T03:41:58;26.30;;;14.60;;
29550;SDS011;16488;52.396;10.696;2023-04-15T03:44:25;27.25;;;14.52;;
29550;SDS011;16488;52.396;10.696;2023-04-15T03:46:51;25.88;;;15.23;;
29550;SDS011;16488;52.396;10.696;2023-04-15T03:49:17;25.33;;;14.43;;
29550;SDS011;16488;52.396;10.696;2023-04-15T03:51:43;25.33;;;13.95;;
29550;SDS011;16488;52.396;10.696;2023-04-15T03:54:09;26.20;;;14.85;;
29550;SDS011;16488;52.396;10.696;2023-04-15T03:59:01;27.13;;;14.25;;
29550;SDS011;16488;52.396;10.696;2023-04-15T04:01:27;26.80;;;13.93;;
29550;SDS011;16488;52.396;10.696;2023-04-15T04:03:52;26.48;;;13.75;;
29550;SDS011;16488;52.396;10.696;2023-04-15T04:06:18;34.50;;;15.70;;
29550;SDS011;16488;52.396;10.696;2023-04-15T04:08:44;33.17;;;15.23;;
29550;SDS011;16488;52.396;10.696;2023-04-15T04:11:09;34.92;;;16.55;;
29550;SDS011;16488;52.396;10.696;2023-04-15T04:13:35;31.65;;;16.15;;
29550;SDS011;16488;52.396;10.696;2023-04-15T04:16:00;35.53;;;17.73;;
29550;SDS011;16488;52.396;10.696;2023-04-15T04:18:28;32.75;;;16.40;;
29550;SDS011;16488;52.396;10.696;2023-04-15T04:20:55;33.97;;;16.20;;
29550;SDS011;16488;52.396;10.696;2023-04-15T04:23:20;29.13;;;15.77;;
29550;SDS011;16488;52.396;10.696;2023-04-15T04:25:46;31.73;;;14.85;;
29550;SDS011;16488;52.396;10.696;2023-04-15T04:28:12;29.10;;;15.30;;
29550;SDS011;16488;52.396;10.696;2023-04-15T04:30:37;28.33;;;15.30;;
29550;SDS011;16488;52.396;10.696;2023-04-15T04:33:03;29.00;;;17.23;;
29550;SDS011;16488;52.396;10.696;2023-04-15T04:35:29;34.75;;;15.15;;
29550;SDS011;16488;52.396;10.696;2023-04-15T04:37:55;26.67;;;15.23;;
29550;SDS011;16488;52.396;10.696;2023-04-15T04:40:21;29.15;;;14.85;;
29550;SDS011;16488;52.396;10.696;2023-04-15T04:42:46;30.42;;;14.95;;
29550;SDS011;16488;52.396;10.696;2023-04-15T04:45:12;31.63;;;15.80;;
29550;SDS011;16488;52.396;10.696;2023-04-15T04:47:38;29.08;;;14.50;;
29550;SDS011;16488;52.396;10.696;2023-04-15T04:50:03;28.80;;;14.50;;
29550;SDS011;16488;52.396;10.696;2023-04-15T04:52:30;27.45;;;14.05;;
29550;SDS011;16488;52.396;10.696;2023-04-15T04:54:55;28.33;;;14.15;;
29550;SDS011;16488;52.396;10.696;2023-04-15T04:57:21;31.42;;;14.80;;
29550;SDS011;16488;52.396;10.696;2023-04-15T04:59:47;28.98;;;14.23;;
29550;SDS011;16488;52.396;10.696;2023-04-15T05:02:12;31.83;;;15.38;;
29550;SDS011;16488;52.396;10.696;2023-04-15T05:04:38;29.25;;;14.05;;
29550;SDS011;16488;52.396;10.696;2023-04-15T05:07:03;25.80;;;13.68;;
29550;SDS011;16488;52.396;10.696;2023-04-15T05:09:29;28.67;;;13.60;;
29550;SDS011;16488;52.396;10.696;2023-04-15T05:11:56;27.85;;;13.95;;
29550;SDS011;16488;52.396;10.696;2023-04-15T05:14:22;24.83;;;12.98;;
29550;SDS011;16488;52.396;10.696;2023-04-15T05:16:47;26.73;;;14.00;;
29550;SDS011;16488;52.396;10.696;2023-04-15T05:19:13;29.80;;;14.13;;
29550;SDS011;16488;52.396;10.696;2023-04-15T05:21:38;26.27;;;12.63;;
29550;SDS011;16488;52.396;10.696;2023-04-15T05:24:04;23.27;;;12.38;;
29550;SDS011;16488;52.396;10.696;2023-04-15T05:26:30;26.60;;;12.82;;
29550;SDS011;16488;52.396;10.696;2023-04-15T05:28:56;23.60;;;11.80;;
29550;SDS011;16488;52.396;10.696;2023-04-15T05:31:22;23.67;;;11.50;;
29550;SDS011;16488;52.396;10.696;2023-04-15T05:33:48;21.45;;;10.77;;
29550;SDS011;16488;52.396;10.696;2023-04-15T05:36:13;22.80;;;10.63;;
29550;SDS011;16488;52.396;10.696;2023-04-15T05:38:39;21.85;;;11.02;;
29550;SDS011;16488;52.396;10.696;2023-04-15T05:41:05;18.75;;;10.13;;
29550;SDS011;16488;52.396;10.696;2023-04-15T05:43:30;20.10;;;10.45;;
29550;SDS011;16488;52.396;10.696;2023-04-15T05:45:56;17.90;;;9.35;;
29550;SDS011;16488;52.396;10.696;2023-04-15T05:48:22;20.30;;;9.25;;
29550;SDS011;16488;52.396;10.696;2023-04-15T05:50:47;18.52;;;9.68;;
29550;SDS011;16488;52.396;10.696;2023-04-15T05:53:13;20.00;;;9.77;;
29550;SDS011;16488;52.396;10.696;2023-04-15T05:55:39;17.60;;;8.60;;
29550;SDS011;16488;52.396;10.696;2023-04-15T05:58:05;14.57;;;8.85;;
29550;SDS011;16488;52.396;10.696;2023-04-15T06:00:30;15.27;;;9.25;;
29550;SDS011;16488;52.396;10.696;2023-04-15T06:02:56;14.45;;;8.18;;
29550;SDS011;16488;52.396;10.696;2023-04-15T06:05:22;17.52;;;8.98;;
29550;SDS011;16488;52.396;10.696;2023-04-15T06:07:48;15.43;;;9.10;;
29550;SDS011;16488;52.396;10.696;2023-04-15T06:10:15;16.20;;;9.00;;
29550;SDS011;16488;52.396;10.696;2023-04-15T06:12:41;13.88;;;7.93;;
29550;SDS011;16488;52.396;10.696;2023-04-15T06:15:06;16.52;;;7.72;;
29550;SDS011;16488;52.396;10.696;2023-04-15T06:17:34;14.95;;;7.75;;
29550;SDS011;16488;52.396;10.696;2023-04-15T06:20:00;13.43;;;7.28;;
29550;SDS011;16488;52.396;10.696;2023-04-15T06:22:26;15.18;;;7.43;;
29550;SDS011;16488;52.396;10.696;2023-04-15T06:24:52;15.82;;;7.80;;
29550;SDS011;16488;52.396;10.696;2023-04-15T06:29:44;12.90;;;7.60;;
29550;SDS011;16488;52.396;10.696;2023-04-15T06:32:10;11.23;;;6.78;;
29550;SDS011;16488;52.396;10.696;2023-04-15T06:37:02;9.45;;;6.20;;
29550;SDS011;16488;52.396;10.696;2023-04-15T06:39:28;13.25;;;7.13;;
29550;SDS011;16488;52.396;10.696;2023-04-15T06:41:53;11.85;;;7.45;;
29550;SDS011;16488;52.396;10.696;2023-04-15T06:44:20;12.65;;;7.00;;
29550;SDS011;16488;52.396;10.696;2023-04-15T06:46:46;13.13;;;8.25;;
29550;SDS011;16488;52.396;10.696;2023-04-15T06:49:11;11.98;;;7.43;;
29550;SDS011;16488;52.396;10.696;2023-04-15T06:51:37;11.40;;;6.57;;
29550;SDS011;16488;52.396;10.696;2023-04-15T06:54:03;13.90;;;8.00;;
29550;SDS011;16488;52.396;10.696;2023-04-15T06:56:30;13.75;;;7.55;;
29550;SDS011;16488;52.396;10.696;2023-04-15T06:58:56;14.43;;;7.40;;
29550;SDS011;16488;52.396;10.696;2023-04-15T07:01:22;14.15;;;7.60;;
29550;SDS011;16488;52.396;10.696;2023-04-15T07:03:47;12.18;;;7.15;;
29550;SDS011;16488;52.396;10.696;2023-04-15T07:06:13;11.90;;;6.97;;
29550;SDS011;16488;52.396;10.696;2023-04-15T07:08:39;17.92;;;8.48;;
29550;SDS011;16488;52.396;10.696;2023-04-15T07:11:04;16.17;;;8.20;;
29550;SDS011;16488;52.396;10.696;2023-04-15T07:13:30;15.45;;;8.65;;
29550;SDS011;16488;52.396;10.696;2023-04-15T07:18:22;15.85;;;8.52;;
29550;SDS011;16488;52.396;10.696;2023-04-15T07:20:47;16.38;;;9.27;;
29550;SDS011;16488;52.396;10.696;2023-04-15T07:23:13;20.38;;;10.25;;
29550;SDS011;16488;52.396;10.696;2023-04-15T07:25:39;15.30;;;9.18;;
29550;SDS011;16488;52.396;10.696;2023-04-15T07:28:05;19.38;;;10.10;;
29550;SDS011;16488;52.396;10.696;2023-04-15T07:30:30;16.63;;;9.73;;
29550;SDS011;16488;52.396;10.696;2023-04-15T07:32:57;18.08;;;9.80;;
29550;SDS011;16488;52.396;10.696;2023-04-15T07:35:22;17.85;;;10.35;;
29550;SDS011;16488;52.396;10.696;2023-04-15T07:37:49;19.27;;;10.40;;
29550;SDS011;16488;52.396;10.696;2023-04-15T07:40:15;15.75;;;9.98;;
29550;SDS011;16488;52.396;10.696;2023-04-15T07:42:40;16.40;;;9.88;;
29550;SDS011;16488;52.396;10.696;2023-04-15T07:45:07;19.35;;;11.07;;
29550;SDS011;16488;52.396;10.696;2023-04-15T07:47:33;20.25;;;11.52;;
29550;SDS011;16488;52.396;10.696;2023-04-15T07:49:59;20.42;;;10.93;;
29550;SDS011;16488;52.396;10.696;2023-04-15T07:52:24;21.50;;;11.35;;
29550;SDS011;16488;52.396;10.696;2023-04-15T07:54:50;23.95;;;11.52;;
29550;SDS011;16488;52.396;10.696;2023-04-15T07:57:15;18.92;;;11.15;;
29550;SDS011;16488;52.396;10.696;2023-04-15T07:59:41;23.33;;;11.93;;
29550;SDS011;16488;52.396;10.696;2023-04-15T08:02:07;23.58;;;12.10;;
29550;SDS011;16488;52.396;10.696;2023-04-15T08:06:59;24.50;;;13.05;;
29550;SDS011;16488;52.396;10.696;2023-04-15T08:09:24;24.67;;;11.63;;
29550;SDS011;16488;52.396;10.696;2023-04-15T08:14:17;23.50;;;11.93;;
29550;SDS011;16488;52.396;10.696;2023-04-15T08:16:42;25.55;;;12.70;;
29550;SDS011;16488;52.396;10.696;2023-04-15T08:19:08;31.48;;;14.95;;
29550;SDS011;16488;52.396;10.696;2023-04-15T08:21:33;30.30;;;14.70;;
29550;SDS011;16488;52.396;10.696;2023-04-15T08:24:00;28.95;;;15.10;;
29550;SDS011;16488;52.396;10.696;2023-04-15T08:26:27;30.00;;;15.32;;
29550;SDS011;16488;52.396;10.696;2023-04-15T08:28:52;31.48;;;16.35;;
29550;SDS011;16488;52.396;10.696;2023-04-15T08:31:18;32.05;;;16.27;;
29550;SDS011;16488;52.396;10.696;2023-04-15T08:33:44;32.47;;;16.50;;
29550;SDS011;16488;52.396;10.696;2023-04-15T08:36:10;32.80;;;17.23;;
29550;SDS011;16488;52.396;10.696;2023-04-15T08:38:37;32.75;;;16.33;;
29550;SDS011;16488;52.396;10.696;2023-04-15T08:41:05;44.03;;;18.95;;
29550;SDS011;16488;52.396;10.696;2023-04-15T08:43:36;41.95;;;20.10;;
29550;SDS011;16488;52.396;10.696;2023-04-15T08:46:15;44.15;;;20.98;;
29550;SDS011;16488;52.396;10.696;2023-04-15T08:51:08;43.92;;;21.77;;
29550;SDS011;16488;52.396;10.696;2023-04-15T08:53:33;45.92;;;21.70;;
29550;SDS011;16488;52.396;10.696;2023-04-15T08:56:00;42.42;;;20.10;;
29550;SDS011;16488;52.396;10.696;2023-04-15T08:58:30;47.25;;;23.15;;
29550;SDS011;16488;52.396;10.696;2023-04-15T09:00:56;53.75;;;24.80;;
29550;SDS011;16488;52.396;10.696;2023-04-15T09:03:21;45.92;;;25.30;;
29550;SDS011;16488;52.396;10.696;2023-04-15T09:05:48;51.50;;;24.63;;
29550;SDS011;16488;52.396;10.696;2023-04-15T09:08:15;56.38;;;27.35;;
29550;SDS011;16488;52.396;10.696;2023-04-15T09:10:40;59.35;;;27.10;;
29550;SDS011;16488;52.396;10.696;2023-04-15T09:13:06;61.60;;;27.60;;
29550;SDS011;16488;52.396;10.696;2023-04-15T09:15:33;60.47;;;26.95;;
29550;SDS011;16488;52.396;10.696;2023-04-15T09:18:02;62.72;;;28.92;;
29550;SDS011;16488;52.396;10.696;2023-04-15T09:20:28;63.50;;;28.17;;
29550;SDS011;16488;52.396;10.696;2023-04-15T09:22:54;59.55;;;28.70;;
29550;SDS011;16488;52.396;10.696;2023-04-15T09:27:49;59.58;;;28.65;;
29550;SDS011;16488;52.396;10.696;2023-04-15T09:30:16;65.80;;;29.58;;
29550;SDS011;16488;52.396;10.696;2023-04-15T09:32:48;66.72;;;29.58;;
29550;SDS011;16488;52.396;10.696;2023-04-15T09:35:19;69.85;;;29.67;;
29550;SDS011;16488;52.396;10.696;2023-04-15T09:37:46;62.83;;;31.88;;
29550;SDS011;16488;52.396;10.696;2023-04-15T09:40:12;70.57;;;29.90;;
29550;SDS011;16488;52.396;10.696;2023-04-15T09:42:53;62.90;;;29.52;;
29550;SDS011;16488;52.396;10.696;2023-04-15T09:45:20;63.45;;;32.20;;
29550;SDS011;16488;52.396;10.696;2023-04-15T09:47:46;65.93;;;30.02;;
29550;SDS011;16488;52.396;10.696;2023-04-15T09:50:12;72.20;;;32.35;;
29550;SDS011;16488;52.396;10.696;2023-04-15T09:52:41;64.38;;;29.35;;
29550;SDS011;16488;52.396;10.696;2023-04-15T09:55:08;54.00;;;27.23;;
29550;SDS011;16488;52.396;10.696;2023-04-15T09:57:36;64.20;;;30.40;;
29550;SDS011;16488;52.396;10.696;2023-04-15T10:00:05;63.17;;;30.65;;
29550;SDS011;16488;52.396;10.696;2023-04-15T10:02:35;68.55;;;30.90;;
29550;SDS011;16488;52.396;10.696;2023-04-15T10:05:01;68.03;;;30.48;;
29550;SDS011;16488;52.396;10.696;2023-04-15T10:07:27;73.63;;;31.58;;
29550;SDS011;16488;52.396;10.696;2023-04-15T10:09:53;69.97;;;31.33;;
29550;SDS011;16488;52.396;10.696;2023-04-15T10:14:52;62.25;;;28.67;;
29550;SDS011;16488;52.396;10.696;2023-04-15T10:17:24;63.13;;;29.85;;
29550;SDS011;16488;52.396;10.696;2023-04-15T10:19:53;63.15;;;30.13;;
29550;SDS011;16488;52.396;10.696;2023-04-15T10:22:20;60.95;;;31.15;;
29550;SDS011;16488;52.396;10.696;2023-04-15T10:24:47;57.35;;;29.23;;
29550;SDS011;16488;52.396;10.696;2023-04-15T10:27:15;70.78;;;33.53;;
29550;SDS011;16488;52.396;10.696;2023-04-15T10:29:42;58.88;;;31.40;;
29550;SDS011;16488;52.396;10.696;2023-04-15T10:32:07;74.38;;;33.78;;
29550;SDS011;16488;52.396;10.696;2023-04-15T10:34:34;72.88;;;34.35;;
29550;SDS011;16488;52.396;10.696;2023-04-15T10:37:01;70.40;;;31.90;;
29550;SDS011;16488;52.396;10.696;2023-04-15T10:42:09;66.55;;;32.75;;
29550;SDS011;16488;52.396;10.696;2023-04-15T10:44:48;63.22;;;32.45;;
29550;SDS011;16488;52.396;10.696;2023-04-15T10:49:44;75.07;;;35.55;;
29550;SDS011;16488;52.396;10.696;2023-04-15T10:52:21;66.22;;;32.42;;
29550;SDS011;16488;52.396;10.696;2023-04-15T10:55:03;70.05;;;31.75;;
29550;SDS011;16488;52.396;10.696;2023-04-15T10:57:42;73.53;;;35.20;;
29550;SDS011;16488;52.396;10.696;2023-04-15T11:00:12;74.60;;;34.58;;
29550;SDS011;16488;52.396;10.696;2023-04-15T11:02:43;82.72;;;36.13;;
29550;SDS011;16488;52.396;10.696;2023-04-15T11:05:09;76.78;;;35.20;;
29550;SDS011;16488;52.396;10.696;2023-04-15T11:07:54;84.22;;;38.00;;
29550;SDS011;16488;52.396;10.696;2023-04-15T11:13:12;78.03;;;36.38;;
29550;SDS011;16488;52.396;10.696;2023-04-15T11:15:45;87.47;;;36.63;;
29550;SDS011;16488;52.396;10.696;2023-04-15T11:18:18;86.28;;;37.50;;
29550;SDS011;16488;52.396;10.696;2023-04-15T11:20:48;83.93;;;38.83;;
29550;SDS011;16488;52.396;10.696;2023-04-15T11:23:16;86.97;;;37.38;;
29550;SDS011;16488;52.396;10.696;2023-04-15T11:25:53;80.47;;;37.30;;
29550;SDS011;16488;52.396;10.696;2023-04-15T11:28:19;75.75;;;33.97;;
29550;SDS011;16488;52.396;10.696;2023-04-15T11:30:45;91.97;;;38.65;;
29550;SDS011;16488;52.396;10.696;2023-04-15T11:33:11;74.18;;;33.47;;
29550;SDS011;16488;52.396;10.696;2023-04-15T11:35:39;75.97;;;34.60;;
29550;SDS011;16488;52.396;10.696;2023-04-15T11:38:09;79.35;;;36.55;;
29550;SDS011;16488;52.396;10.696;2023-04-15T11:40:36;71.30;;;33.42;;
29550;SDS011;16488;52.396;10.696;2023-04-15T11:43:05;71.35;;;35.05;;
29550;SDS011;16488;52.396;10.696;2023-04-15T11:45:32;73.78;;;35.03;;
29550;SDS011;16488;52.396;10.696;2023-04-15T11:48:07;72.43;;;34.05;;
29550;SDS011;16488;52.396;10.696;2023-04-15T11:50:33;71.70;;;35.33;;
29550;SDS011;16488;52.396;10.696;2023-04-15T11:53:01;73.43;;;35.33;;
29550;SDS011;16488;52.396;10.696;2023-04-15T11:55:29;73.32;;;34.72;;
29550;SDS011;16488;52.396;10.696;2023-04-15T11:58:05;79.93;;;36.90;;
29550;SDS011;16488;52.396;10.696;2023-04-15T12:00:37;73.00;;;33.90;;
29550;SDS011;16488;52.396;10.696;2023-04-15T12:06:05;71.72;;;36.15;;
29550;SDS011;16488;52.396;10.696;2023-04-15T12:13:57;75.95;;;35.88;;
29550;SDS011;16488;52.396;10.696;2023-04-15T12:16:35;71.97;;;35.08;;
29550;SDS011;16488;52.396;10.696;2023-04-15T12:19:08;75.43;;;35.53;;
29550;SDS011;16488;52.396;10.696;2023-04-15T12:21:37;72.78;;;34.25;;
29550;SDS011;16488;52.396;10.696;2023-04-15T12:24:04;83.38;;;35.45;;
29550;SDS011;16488;52.396;10.696;2023-04-15T12:26:33;73.43;;;33.85;;
29550;SDS011;16488;52.396;10.696;2023-04-15T12:29:02;68.45;;;34.13;;
29550;SDS011;16488;52.396;10.696;2023-04-15T12:31:31;73.82;;;34.95;;
29550;SDS011;16488;52.396;10.696;2023-04-15T12:33:58;76.78;;;36.97;;
29550;SDS011;16488;52.396;10.696;2023-04-15T12:36:24;76.07;;;36.20;;
29550;SDS011;16488;52.396;10.696;2023-04-15T12:38:50;73.65;;;34.13;;
29550;SDS011;16488;52.396;10.696;2023-04-15T12:41:16;69.57;;;33.58;;
29550;SDS011;16488;52.396;10.696;2023-04-15T12:43:44;67.22;;;34.05;;
29550;SDS011;16488;52.396;10.696;2023-04-15T12:46:13;61.92;;;33.60;;
29550;SDS011;16488;52.396;10.696;2023-04-15T12:51:05;73.90;;;34.50;;
29550;SDS011;16488;52.396;10.696;2023-04-15T12:53:31;72.15;;;33.65;;
29550;SDS011;16488;52.396;10.696;2023-04-15T12:55:56;76.38;;;36.60;;
29550;SDS011;16488;52.396;10.696;2023-04-15T12:58:22;69.95;;;36.55;;
29550;SDS011;16488;52.396;10.696;2023-04-15T13:00:47;70.97;;;34.10;;
29550;SDS011;16488;52.396;10.696;2023-04-15T13:03:14;75.57;;;36.25;;
29550;SDS011;16488;52.396;10.696;2023-04-15T13:08:06;78.43;;;36.63;;
29550;SDS011;16488;52.396;10.696;2023-04-15T13:10:32;76.38;;;38.53;;
29550;SDS011;16488;52.396;10.696;2023-04-15T13:12:58;73.63;;;36.33;;
29550;SDS011;16488;52.396;10.696;2023-04-15T13:15:23;69.13;;;34.15;;
29550;SDS011;16488;52.396;10.696;2023-04-15T13:17:50;75.18;;;35.90;;
29550;SDS011;16488;52.396;10.696;2023-04-15T13:20:15;70.30;;;36.30;;
29550;SDS011;16488;52.396;10.696;2023-04-15T13:22:41;66.38;;;33.95;;
29550;SDS011;16488;52.396;10.696;2023-04-15T13:25:07;63.92;;;34.72;;
29550;SDS011;16488;52.396;10.696;2023-04-15T13:27:33;64.40;;;34.00;;
29550;SDS011;16488;52.396;10.696;2023-04-15T13:29:59;62.10;;;35.40;;
29550;SDS011;16488;52.396;10.696;2023-04-15T13:32:24;61.38;;;34.17;;
29550;SDS011;16488;52.396;10.696;2023-04-15T13:34:50;62.28;;;33.97;;
29550;SDS011;16488;52.396;10.696;2023-04-15T13:37:16;61.67;;;33.17;;
29550;SDS011;16488;52.396;10.696;2023-04-15T13:39:42;63.45;;;32.63;;
29550;SDS011;16488;52.396;10.696;2023-04-15T13:42:07;58.13;;;33.40;;
29550;SDS011;16488;52.396;10.696;2023-04-15T13:44:33;58.83;;;32.13;;
29550;SDS011;16488;52.396;10.696;2023-04-15T13:46:59;57.03;;;32.47;;
29550;SDS011;16488;52.396;10.696;2023-04-15T13:49:25;61.65;;;32.75;;
29550;SDS011;16488;52.396;10.696;2023-04-15T13:51:50;65.63;;;36.67;;
29550;SDS011;16488;52.396;10.696;2023-04-15T13:54:16;60.40;;;32.55;;
29550;SDS011;16488;52.396;10.696;2023-04-15T13:56:42;58.73;;;32.93;;
29550;SDS011;16488;52.396;10.696;2023-04-15T13:59:07;65.45;;;34.50;;
29550;SDS011;16488;52.396;10.696;2023-04-15T14:01:33;62.63;;;34.60;;
29550;SDS011;16488;52.396;10.696;2023-04-15T14:03:59;57.90;;;32.55;;
29550;SDS011;16488;52.396;10.696;2023-04-15T14:06:25;61.35;;;34.22;;
29550;SDS011;16488;52.396;10.696;2023-04-15T14:11:16;65.60;;;34.95;;
29550;SDS011;16488;52.396;10.696;2023-04-15T14:13:42;60.03;;;34.47;;
29550;SDS011;16488;52.396;10.696;2023-04-15T14:16:08;52.53;;;32.88;;
29550;SDS011;16488;52.396;10.696;2023-04-15T14:18:33;55.58;;;34.13;;
29550;SDS011;16488;52.396;10.696;2023-04-15T14:20:59;52.97;;;32.08;;
29550;SDS011;16488;52.396;10.696;2023-04-15T14:23:25;54.55;;;32.83;;
29550;SDS011;16488;52.396;10.696;2023-04-15T14:25:50;57.42;;;33.67;;
29550;SDS011;16488;52.396;10.696;2023-04-15T14:30:42;53.70;;;32.75;;
29550;SDS011;16488;52.396;10.696;2023-04-15T14:33:08;58.53;;;31.75;;
29550;SDS011;16488;52.396;10.696;2023-04-15T14:35:33;46.22;;;30.40;;
29550;SDS011;16488;52.396;10.696;2023-04-15T14:37:59;52.30;;;31.25;;
29550;SDS011;16488;52.396;10.696;2023-04-15T14:40:25;50.70;;;31.02;;
29550;SDS011;16488;52.396;10.696;2023-04-15T14:42:50;56.38;;;34.60;;
29550;SDS011;16488;52.396;10.696;2023-04-15T14:45:16;59.05;;;33.90;;
29550;SDS011;16488;52.396;10.696;2023-04-15T14:47:42;62.58;;;33.40;;
29550;SDS011;16488;52.396;10.696;2023-04-15T14:50:08;52.80;;;29.60;;
29550;SDS011;16488;52.396;10.696;2023-04-15T14:52:34;44.40;;;29.00;;
29550;SDS011;16488;52.396;10.696;2023-04-15T14:55:11;38.58;;;25.45;;
29550;SDS011;16488;52.396;10.696;2023-04-15T14:57:40;33.53;;;22.65;;
29550;SDS011;16488;52.396;10.696;2023-04-15T15:00:06;35.00;;;21.25;;
29550;SDS011;16488;52.396;10.696;2023-04-15T15:02:33;28.35;;;19.88;;
29550;SDS011;16488;52.396;10.696;2023-04-15T15:05:00;28.73;;;19.55;;
29550;SDS011;16488;52.396;10.696;2023-04-15T15:07:26;28.40;;;19.70;;